createdAt,value
2023-05-14T09:56:09.896Z,17.85
2023-05-14T09:58:37.678Z,13.40
2023-05-14T10:01:06.653Z,12.82
2023-05-14T10:03:34.427Z,12.80
2023-05-14T10:06:07.216Z,8.50
2023-05-14T10:08:36.887Z,10.80
2023-05-14T10:11:07.852Z,11.38
2023-05-14T10:13:40.891Z,12.43
2023-05-14T10:16:15.678Z,11.50
2023-05-14T10:18:48.579Z,8.05
2023-05-14T10:21:18.460Z,12.48
2023-05-14T10:23:47.440Z,7.63
2023-05-14T10:26:15.670Z,7.88
2023-05-14T10:31:13.896Z,7.47
2023-05-14T10:33:50.195Z,8.65
2023-05-14T10:36:19.035Z,9.40
2023-05-14T10:38:47.775Z,9.38
2023-05-14T10:41:17.785Z,9.15
2023-05-14T10:43:46.888Z,7.80
2023-05-14T10:46:15.765Z,9.07
2023-05-14T10:48:44.716Z,6.68
2023-05-14T10:51:13.415Z,9.25
2023-05-14T10:53:43.491Z,9.23
2023-05-14T10:56:12.881Z,9.10
2023-05-14T10:58:43.701Z,9.98
2023-05-14T11:01:14.157Z,7.88
2023-05-14T11:03:43.408Z,7.63
2023-05-14T11:06:13.037Z,6.88
2023-05-14T11:08:41.644Z,9.38
2023-05-14T11:11:10.484Z,6.72
2023-05-14T11:13:38.468Z,8.73
2023-05-14T11:18:41.717Z,9.10
2023-05-14T11:21:09.659Z,6.38
2023-05-14T11:23:37.417Z,6.93
2023-05-14T11:26:05.479Z,8.48
2023-05-14T11:28:33.301Z,6.82
2023-05-14T11:31:01.012Z,7.50
2023-05-14T11:33:28.894Z,6.00
2023-05-14T11:35:58.067Z,7.50
2023-05-14T11:38:25.784Z,9.35
2023-05-14T11:40:54.475Z,7.18
2023-05-14T11:43:23.753Z,8.27
2023-05-14T11:45:52.559Z,7.43
2023-05-14T11:48:20.501Z,9.95
2023-05-14T11:50:49.622Z,7.95
2023-05-14T11:53:26.367Z,8.60
2023-05-14T11:55:55.282Z,5.55
2023-05-14T11:58:23.268Z,10.02
2023-05-14T12:00:52.409Z,6.88
2023-05-14T12:03:25.510Z,4.65
2023-05-14T12:05:57.895Z,7.97
2023-05-14T12:08:31.266Z,8.00
2023-05-14T12:11:00.542Z,8.60
2023-05-14T12:13:29.332Z,7.72
2023-05-14T12:15:58.614Z,6.00
2023-05-14T12:18:28.190Z,5.88
2023-05-14T12:20:56.320Z,8.98
2023-05-14T12:23:30.215Z,7.78
2023-05-14T12:26:03.500Z,9.00
2023-05-14T12:28:31.649Z,8.82
2023-05-14T12:31:00.064Z,9.48
2023-05-14T12:33:28.546Z,6.10
2023-05-14T12:35:58.890Z,6.18
2023-05-14T12:38:29.869Z,9.27
2023-05-14T12:40:57.596Z,8.27
2023-05-14T12:43:25.419Z,6.28
2023-05-14T12:45:53.049Z,7.10
2023-05-14T12:48:20.728Z,6.38
2023-05-14T12:50:48.809Z,5.88
2023-05-14T12:53:16.954Z,6.43
2023-05-14T12:55:46.323Z,6.88
2023-05-14T12:58:13.979Z,7.45
2023-05-14T13:00:41.817Z,6.22
2023-05-14T13:03:09.642Z,7.30
2023-05-14T13:10:32.860Z,8.27
2023-05-14T13:13:02.929Z,8.85
2023-05-14T13:15:31.606Z,7.72
2023-05-14T13:17:59.445Z,8.75
2023-05-14T13:22:55.482Z,4.85
2023-05-14T13:27:51.697Z,8.13
2023-05-14T13:30:21.260Z,10.93
2023-05-14T13:32:49.411Z,5.88
2023-05-14T13:35:17.292Z,7.85
2023-05-14T13:37:45.285Z,6.30
2023-05-14T13:42:41.061Z,5.85
2023-05-14T13:45:09.699Z,7.68
2023-05-14T13:47:40.093Z,5.97
2023-05-14T13:50:08.821Z,6.35
2023-05-14T13:52:37.811Z,6.72
2023-05-14T13:55:06.461Z,6.82
2023-05-14T13:57:34.132Z,4.53
2023-05-14T14:00:02.304Z,6.28
2023-05-14T14:02:31.286Z,8.88
2023-05-14T14:05:00.914Z,7.18
2023-05-14T14:07:28.586Z,9.25
2023-05-14T14:09:56.303Z,6.25
2023-05-14T14:12:24.069Z,8.25
2023-05-14T14:14:52.241Z,8.48
2023-05-14T14:17:20.030Z,6.05
2023-05-14T14:19:47.834Z,8.73
2023-05-14T14:22:17.429Z,7.85
2023-05-14T14:24:45.306Z,6.93
2023-05-14T14:27:13.012Z,6.70
2023-05-14T14:29:40.704Z,6.05
2023-05-14T14:32:08.873Z,6.10
2023-05-14T14:34:36.737Z,7.20
2023-05-14T14:37:04.450Z,7.28
2023-05-14T14:39:33.546Z,5.05
2023-05-14T14:42:01.275Z,5.88
2023-05-14T14:44:28.962Z,6.85
2023-05-14T14:46:56.728Z,8.77
2023-05-14T14:49:24.782Z,6.25
2023-05-14T14:54:20.075Z,6.47
2023-05-14T14:56:52.266Z,8.55
2023-05-14T14:59:19.986Z,6.75
2023-05-14T15:01:47.797Z,7.82
2023-05-14T15:04:15.671Z,13.45
2023-05-14T15:06:43.360Z,8.40
2023-05-14T15:09:11.063Z,9.48
2023-05-14T15:11:38.740Z,7.85
2023-05-14T15:14:07.921Z,6.50
2023-05-14T15:16:35.749Z,7.10
2023-05-14T15:19:03.707Z,8.88
2023-05-14T15:21:31.999Z,4.00
2023-05-14T15:23:59.805Z,6.50
2023-05-14T15:26:27.453Z,4.25
2023-05-14T15:28:55.432Z,4.95
2023-05-14T15:31:24.738Z,5.85
2023-05-14T15:33:52.964Z,5.47
2023-05-14T15:36:20.770Z,6.05
2023-05-14T15:38:48.746Z,5.63
2023-05-14T15:41:16.547Z,6.22
2023-05-14T15:43:44.293Z,5.40
2023-05-14T15:46:12.577Z,8.15
2023-05-14T15:48:42.141Z,6.22
2023-05-14T15:51:09.919Z,8.23
2023-05-14T15:53:37.742Z,7.85
2023-05-14T15:56:05.923Z,6.38
2023-05-14T16:01:01.483Z,6.93
2023-05-14T16:03:29.309Z,11.38
2023-05-14T16:05:58.412Z,7.72
2023-05-14T16:08:26.098Z,7.78
2023-05-14T16:10:53.814Z,8.02
2023-05-14T16:13:21.441Z,7.53
2023-05-14T16:15:49.470Z,9.88
2023-05-14T16:18:17.485Z,9.43
2023-05-14T16:20:45.170Z,8.82
2023-05-14T16:23:14.531Z,11.25
2023-05-14T16:25:42.365Z,8.07
2023-05-14T16:28:10.150Z,11.10
2023-05-14T16:30:37.811Z,10.45
2023-05-14T16:33:06.408Z,10.43
2023-05-14T16:35:34.240Z,9.88
2023-05-14T16:38:02.042Z,9.93
2023-05-14T16:40:31.083Z,12.27
2023-05-14T16:42:58.795Z,10.32
2023-05-14T16:45:26.710Z,10.23
2023-05-14T16:47:54.732Z,9.13
2023-05-14T16:50:22.484Z,9.40
2023-05-14T16:52:50.332Z,11.90
2023-05-14T16:55:19.491Z,12.50
2023-05-14T16:57:48.710Z,10.40
2023-05-14T17:00:17.886Z,10.27
2023-05-14T17:02:49.070Z,11.82
2023-05-14T17:05:17.307Z,13.07
2023-05-14T17:07:45.060Z,10.88
2023-05-14T17:10:12.740Z,11.57
2023-05-14T17:12:40.504Z,11.50
2023-05-14T17:15:10.864Z,15.90
2023-05-14T17:17:38.671Z,10.50
2023-05-14T17:20:07.352Z,11.82
2023-05-14T17:22:35.521Z,13.30
2023-05-14T17:25:03.710Z,17.50
2023-05-14T17:27:33.286Z,13.60
2023-05-14T17:30:01.641Z,12.65
2023-05-14T17:34:59.286Z,10.05
2023-05-14T17:37:27.400Z,10.63
2023-05-14T17:39:55.267Z,11.25
2023-05-14T17:42:22.987Z,10.20
2023-05-14T17:44:50.734Z,10.60
2023-05-14T17:47:20.601Z,12.95
2023-05-14T17:49:50.836Z,11.27
2023-05-14T17:52:19.087Z,9.13
2023-05-14T17:54:46.910Z,10.35
2023-05-14T17:57:14.627Z,12.40
2023-05-14T17:59:42.449Z,10.77
2023-05-14T18:02:10.137Z,11.27
2023-05-14T18:04:39.725Z,9.90
2023-05-14T18:07:08.905Z,11.50
2023-05-14T18:09:36.679Z,11.65
2023-05-14T18:12:04.463Z,11.55
2023-05-14T18:14:32.243Z,10.25
2023-05-14T18:17:00.082Z,9.15
2023-05-14T18:19:27.987Z,10.25
2023-05-14T18:21:56.204Z,11.90
2023-05-14T18:24:26.171Z,9.18
2023-05-14T18:26:53.997Z,11.68
2023-05-14T18:29:21.797Z,12.90
2023-05-14T18:31:49.586Z,8.88
2023-05-14T18:34:18.025Z,10.25
2023-05-14T18:36:47.884Z,9.30
2023-05-14T18:39:20.145Z,8.77
2023-05-14T18:41:53.175Z,9.97
2023-05-14T18:44:21.171Z,9.67
2023-05-14T18:46:49.230Z,5.82
2023-05-14T18:49:17.236Z,9.43
2023-05-14T18:51:45.170Z,10.07
2023-05-14T18:54:13.078Z,10.82
2023-05-14T18:56:45.519Z,10.07
2023-05-14T18:59:19.114Z,13.30
2023-05-14T19:01:47.098Z,12.97
2023-05-14T19:04:14.974Z,10.82
2023-05-14T19:06:42.985Z,10.52
2023-05-14T19:09:10.854Z,9.68
2023-05-14T19:11:38.912Z,8.07
2023-05-14T19:14:06.857Z,15.15
2023-05-14T19:16:36.536Z,8.38
2023-05-14T19:19:05.048Z,9.60
2023-05-14T19:21:32.818Z,9.95
2023-05-14T19:24:02.982Z,11.43
2023-05-14T19:26:30.798Z,9.80
2023-05-14T19:28:59.070Z,8.80
2023-05-14T19:31:27.058Z,10.40
2023-05-14T19:33:56.387Z,13.40
2023-05-14T19:36:24.092Z,12.90
2023-05-14T19:38:51.823Z,8.32
2023-05-14T19:41:19.571Z,7.88
2023-05-14T19:43:47.340Z,10.05
2023-05-14T19:46:15.200Z,12.70
2023-05-14T19:48:43.036Z,8.85
2023-05-14T19:51:12.109Z,10.48
2023-05-14T19:53:39.869Z,9.27
2023-05-14T19:56:07.705Z,10.63
2023-05-14T19:58:35.458Z,10.07
2023-05-14T20:01:03.257Z,12.20
2023-05-14T20:03:31.143Z,10.50
2023-05-14T20:05:58.894Z,11.95
2023-05-14T20:08:29.024Z,7.85
2023-05-14T20:10:56.964Z,8.93
2023-05-14T20:13:25.483Z,8.73
2023-05-14T20:18:22.947Z,8.27
2023-05-14T20:20:50.664Z,8.70
2023-05-14T20:23:18.513Z,10.25
2023-05-14T20:25:47.798Z,8.95
2023-05-14T20:28:15.684Z,9.90
2023-05-14T20:30:43.350Z,11.13
2023-05-14T20:33:12.959Z,9.27
2023-05-14T20:35:43.829Z,5.97
2023-05-14T20:38:12.739Z,12.13
2023-05-14T20:40:41.110Z,10.50
2023-05-14T20:43:10.289Z,7.53
2023-05-14T20:45:38.029Z,8.70
2023-05-14T20:48:10.046Z,7.72
2023-05-14T20:50:37.954Z,7.00
2023-05-14T20:53:05.887Z,10.60
2023-05-14T20:55:33.943Z,9.50
2023-05-14T20:58:01.720Z,7.13
2023-05-14T21:00:31.096Z,9.27
2023-05-14T21:03:00.207Z,9.77
2023-05-14T21:05:28.271Z,10.80
2023-05-14T21:07:56.103Z,6.85
2023-05-14T21:10:24.044Z,12.73
2023-05-14T21:12:52.448Z,10.00
2023-05-14T21:15:20.593Z,9.65
2023-05-14T21:17:49.756Z,11.30
2023-05-14T21:20:17.609Z,10.37
2023-05-14T21:22:45.756Z,9.15
2023-05-14T21:25:13.711Z,10.27
2023-05-14T21:27:41.448Z,9.13
2023-05-14T21:30:10.520Z,9.48
2023-05-14T21:32:38.222Z,8.27
2023-05-14T21:35:08.097Z,11.67
2023-05-14T21:37:35.959Z,11.27
2023-05-14T21:40:03.645Z,8.20
2023-05-14T21:42:31.428Z,10.97
2023-05-14T21:44:59.093Z,10.48
2023-05-14T21:47:27.661Z,12.63
2023-05-14T21:52:24.367Z,17.47
2023-05-14T21:54:52.116Z,14.00
2023-05-14T21:57:20.075Z,14.13
2023-05-14T21:59:50.480Z,14.07
2023-05-14T22:02:18.357Z,13.10
2023-05-14T22:04:46.903Z,13.45
2023-05-14T22:07:14.581Z,13.38
2023-05-14T22:09:46.492Z,17.50
2023-05-14T22:12:14.275Z,11.87
2023-05-14T22:14:42.031Z,12.35
2023-05-14T22:17:09.824Z,13.93
2023-05-14T22:19:37.435Z,16.83
2023-05-14T22:22:05.526Z,15.13
2023-05-14T22:24:33.120Z,14.82
2023-05-14T22:27:02.298Z,15.50
2023-05-14T22:29:30.078Z,17.30
2023-05-14T22:31:57.974Z,18.50
2023-05-14T22:34:25.736Z,18.35
2023-05-14T22:36:53.562Z,17.77
2023-05-14T22:39:21.463Z,17.77
2023-05-14T22:41:54.728Z,15.48
2023-05-14T22:44:24.127Z,20.83
2023-05-14T22:46:52.102Z,16.47
2023-05-14T22:49:19.784Z,19.40
2023-05-14T22:51:47.445Z,17.63
2023-05-14T22:54:15.112Z,18.53
2023-05-14T22:56:42.878Z,18.60
2023-05-14T22:59:10.646Z,24.70
2023-05-14T23:01:40.526Z,23.85
2023-05-14T23:04:08.324Z,16.70
2023-05-14T23:06:36.464Z,20.42
2023-05-14T23:09:04.207Z,20.38
2023-05-14T23:11:31.950Z,21.03
2023-05-14T23:13:59.644Z,20.63
2023-05-14T23:16:27.412Z,20.43
2023-05-14T23:18:56.528Z,23.80
2023-05-14T23:21:24.689Z,23.20
2023-05-14T23:23:52.400Z,21.13
2023-05-14T23:26:20.108Z,21.53
2023-05-14T23:28:48.293Z,20.63
2023-05-14T23:31:16.094Z,21.02
2023-05-14T23:33:45.037Z,20.38
2023-05-14T23:36:14.257Z,26.00
2023-05-14T23:38:42.148Z,24.60
2023-05-14T23:41:09.837Z,21.75
2023-05-14T23:43:38.165Z,26.07
2023-05-14T23:46:06.218Z,21.80
2023-05-14T23:48:33.922Z,23.08
2023-05-14T23:51:01.760Z,22.87
2023-05-14T23:53:30.849Z,22.23
2023-05-14T23:55:58.664Z,20.37
2023-05-14T23:58:26.483Z,26.10
